sensor_id;sensor_type;location;lat;lon;timestamp;P1;durP1;ratioP1;P2;durP2;ratioP2
20966;SDS011;10642;50.682;18.510;2023-05-27T00:01:16;16.17;;;5.00;;
20966;SDS011;10642;50.682;18.510;2023-05-27T00:03:44;15.90;;;5.13;;
20966;SDS011;10642;50.682;18.510;2023-05-27T00:06:11;16.83;;;5.07;;
20966;SDS011;10642;50.682;18.510;2023-05-27T00:08:38;17.93;;;5.57;;
20966;SDS011;10642;50.682;18.510;2023-05-27T00:11:05;16.97;;;5.20;;
20966;SDS011;10642;50.682;18.510;2023-05-27T00:13:32;15.03;;;5.33;;
20966;SDS011;10642;50.682;18.510;2023-05-27T00:15:59;16.43;;;6.20;;
20966;SDS011;10642;50.682;18.510;2023-05-27T00:18:27;14.03;;;5.27;;
20966;SDS011;10642;50.682;18.510;2023-05-27T00:20:54;13.03;;;5.00;;
20966;SDS011;10642;50.682;18.510;2023-05-27T00:23:21;15.43;;;5.10;;
20966;SDS011;10642;50.682;18.510;2023-05-27T00:25:48;17.10;;;6.23;;
20966;SDS011;10642;50.682;18.510;2023-05-27T00:28:15;14.13;;;5.43;;
20966;SDS011;10642;50.682;18.510;2023-05-27T00:30:42;14.90;;;5.10;;
20966;SDS011;10642;50.682;18.510;2023-05-27T00:33:09;12.93;;;5.03;;
20966;SDS011;10642;50.682;18.510;2023-05-27T00:35:36;20.87;;;5.67;;
20966;SDS011;10642;50.682;18.510;2023-05-27T00:38:04;18.70;;;5.73;;
20966;SDS011;10642;50.682;18.510;2023-05-27T00:40:31;17.70;;;6.07;;
20966;SDS011;10642;50.682;18.510;2023-05-27T00:43:01;23.67;;;6.13;;
20966;SDS011;10642;50.682;18.510;2023-05-27T00:45:27;20.57;;;6.37;;
20966;SDS011;10642;50.682;18.510;2023-05-27T00:47:54;20.00;;;5.57;;
20966;SDS011;10642;50.682;18.510;2023-05-27T00:50:22;15.90;;;5.53;;
20966;SDS011;10642;50.682;18.510;2023-05-27T00:52:52;17.30;;;5.30;;
20966;SDS011;10642;50.682;18.510;2023-05-27T00:55:25;18.63;;;5.43;;
20966;SDS011;10642;50.682;18.510;2023-05-27T00:57:52;15.97;;;5.33;;
20966;SDS011;10642;50.682;18.510;2023-05-27T01:00:22;18.30;;;5.43;;
20966;SDS011;10642;50.682;18.510;2023-05-27T01:02:48;17.33;;;4.87;;
20966;SDS011;10642;50.682;18.510;2023-05-27T01:05:17;14.40;;;5.60;;
20966;SDS011;10642;50.682;18.510;2023-05-27T01:07:57;17.50;;;5.03;;
20966;SDS011;10642;50.682;18.510;2023-05-27T01:10:39;21.80;;;5.47;;
20966;SDS011;10642;50.682;18.510;2023-05-27T01:13:13;14.10;;;6.43;;
20966;SDS011;10642;50.682;18.510;2023-05-27T01:15:43;16.67;;;6.40;;
20966;SDS011;10642;50.682;18.510;2023-05-27T01:18:10;25.37;;;7.70;;
20966;SDS011;10642;50.682;18.510;2023-05-27T01:20:38;14.83;;;6.77;;
20966;SDS011;10642;50.682;18.510;2023-05-27T01:23:08;16.43;;;6.20;;
20966;SDS011;10642;50.682;18.510;2023-05-27T01:25:35;17.93;;;5.93;;
20966;SDS011;10642;50.682;18.510;2023-05-27T01:28:02;10.63;;;4.40;;
20966;SDS011;10642;50.682;18.510;2023-05-27T01:30:30;18.70;;;5.07;;
20966;SDS011;10642;50.682;18.510;2023-05-27T01:32:59;16.07;;;4.60;;
20966;SDS011;10642;50.682;18.510;2023-05-27T01:35:30;18.00;;;4.40;;
20966;SDS011;10642;50.682;18.510;2023-05-27T01:37:59;18.90;;;5.07;;
20966;SDS011;10642;50.682;18.510;2023-05-27T01:40:27;15.70;;;5.23;;
20966;SDS011;10642;50.682;18.510;2023-05-27T01:42:56;18.83;;;5.77;;
20966;SDS011;10642;50.682;18.510;2023-05-27T01:45:24;11.67;;;4.70;;
20966;SDS011;10642;50.682;18.510;2023-05-27T01:47:52;10.40;;;4.10;;
20966;SDS011;10642;50.682;18.510;2023-05-27T01:50:21;14.63;;;4.93;;
20966;SDS011;10642;50.682;18.510;2023-05-27T01:52:47;14.60;;;4.47;;
20966;SDS011;10642;50.682;18.510;2023-05-27T01:55:15;17.37;;;4.93;;
20966;SDS011;10642;50.682;18.510;2023-05-27T01:57:44;12.23;;;4.37;;
20966;SDS011;10642;50.682;18.510;2023-05-27T02:00:11;14.90;;;4.67;;
20966;SDS011;10642;50.682;18.510;2023-05-27T02:02:44;21.40;;;4.63;;
20966;SDS011;10642;50.682;18.510;2023-05-27T02:05:16;22.47;;;4.97;;
20966;SDS011;10642;50.682;18.510;2023-05-27T02:07:43;17.07;;;4.90;;
20966;SDS011;10642;50.682;18.510;2023-05-27T02:10:10;15.20;;;4.40;;
20966;SDS011;10642;50.682;18.510;2023-05-27T02:12:37;14.70;;;4.80;;
20966;SDS011;10642;50.682;18.510;2023-05-27T02:15:04;17.40;;;4.87;;
20966;SDS011;10642;50.682;18.510;2023-05-27T02:17:32;19.97;;;4.90;;
20966;SDS011;10642;50.682;18.510;2023-05-27T02:19:59;14.73;;;4.20;;
20966;SDS011;10642;50.682;18.510;2023-05-27T02:22:26;11.47;;;3.73;;
20966;SDS011;10642;50.682;18.510;2023-05-27T02:24:53;15.50;;;4.70;;
20966;SDS011;10642;50.682;18.510;2023-05-27T02:27:20;16.50;;;4.03;;
20966;SDS011;10642;50.682;18.510;2023-05-27T02:29:47;16.13;;;4.13;;
20966;SDS011;10642;50.682;18.510;2023-05-27T02:32:15;15.60;;;4.67;;
20966;SDS011;10642;50.682;18.510;2023-05-27T02:34:43;16.50;;;4.27;;
20966;SDS011;10642;50.682;18.510;2023-05-27T02:37:11;17.00;;;4.47;;
20966;SDS011;10642;50.682;18.510;2023-05-27T02:39:38;16.50;;;4.50;;
20966;SDS011;10642;50.682;18.510;2023-05-27T02:42:06;14.63;;;4.00;;
20966;SDS011;10642;50.682;18.510;2023-05-27T02:44:33;42.13;;;5.50;;
20966;SDS011;10642;50.682;18.510;2023-05-27T02:46:59;19.23;;;4.73;;
20966;SDS011;10642;50.682;18.510;2023-05-27T02:49:26;18.90;;;4.80;;
20966;SDS011;10642;50.682;18.510;2023-05-27T02:51:54;16.70;;;3.80;;
20966;SDS011;10642;50.682;18.510;2023-05-27T02:54:21;15.00;;;4.27;;
20966;SDS011;10642;50.682;18.510;2023-05-27T02:56:48;12.57;;;4.13;;
20966;SDS011;10642;50.682;18.510;2023-05-27T02:59:15;14.60;;;3.90;;
20966;SDS011;10642;50.682;18.510;2023-05-27T03:01:43;16.77;;;4.37;;
20966;SDS011;10642;50.682;18.510;2023-05-27T03:04:10;13.67;;;3.57;;
20966;SDS011;10642;50.682;18.510;2023-05-27T03:06:37;18.00;;;4.20;;
20966;SDS011;10642;50.682;18.510;2023-05-27T03:09:04;12.23;;;3.10;;
20966;SDS011;10642;50.682;18.510;2023-05-27T03:11:31;14.63;;;4.10;;
20966;SDS011;10642;50.682;18.510;2023-05-27T03:13:58;12.13;;;3.90;;
20966;SDS011;10642;50.682;18.510;2023-05-27T03:16:25;10.97;;;3.63;;
20966;SDS011;10642;50.682;18.510;2023-05-27T03:18:52;14.30;;;3.63;;
20966;SDS011;10642;50.682;18.510;2023-05-27T03:21:19;12.93;;;3.70;;
20966;SDS011;10642;50.682;18.510;2023-05-27T03:23:46;11.47;;;3.77;;
20966;SDS011;10642;50.682;18.510;2023-05-27T03:26:13;10.33;;;3.40;;
20966;SDS011;10642;50.682;18.510;2023-05-27T03:28:40;11.07;;;3.47;;
20966;SDS011;10642;50.682;18.510;2023-05-27T03:31:08;16.43;;;3.47;;
20966;SDS011;10642;50.682;18.510;2023-05-27T03:33:55;10.90;;;3.27;;
20966;SDS011;10642;50.682;18.510;2023-05-27T03:36:22;11.53;;;3.40;;
20966;SDS011;10642;50.682;18.510;2023-05-27T03:38:50;15.80;;;3.23;;
20966;SDS011;10642;50.682;18.510;2023-05-27T03:41:17;14.93;;;3.73;;
20966;SDS011;10642;50.682;18.510;2023-05-27T03:43:44;11.67;;;3.70;;
20966;SDS011;10642;50.682;18.510;2023-05-27T03:46:13;9.30;;;3.60;;
20966;SDS011;10642;50.682;18.510;2023-05-27T03:48:40;12.57;;;3.63;;
20966;SDS011;10642;50.682;18.510;2023-05-27T03:51:07;10.87;;;3.17;;
20966;SDS011;10642;50.682;18.510;2023-05-27T03:53:34;11.37;;;3.10;;
20966;SDS011;10642;50.682;18.510;2023-05-27T03:56:02;15.47;;;3.17;;
20966;SDS011;10642;50.682;18.510;2023-05-27T03:58:30;20.23;;;3.70;;
20966;SDS011;10642;50.682;18.510;2023-05-27T04:00:57;13.80;;;3.13;;
20966;SDS011;10642;50.682;18.510;2023-05-27T04:03:23;13.33;;;3.97;;
20966;SDS011;10642;50.682;18.510;2023-05-27T04:05:53;11.97;;;3.60;;
20966;SDS011;10642;50.682;18.510;2023-05-27T04:08:20;12.33;;;3.27;;
20966;SDS011;10642;50.682;18.510;2023-05-27T04:10:49;12.70;;;3.67;;
20966;SDS011;10642;50.682;18.510;2023-05-27T04:13:16;14.97;;;3.37;;
20966;SDS011;10642;50.682;18.510;2023-05-27T04:15:43;13.27;;;3.53;;
20966;SDS011;10642;50.682;18.510;2023-05-27T04:18:10;9.33;;;2.80;;
20966;SDS011;10642;50.682;18.510;2023-05-27T04:20:38;9.37;;;2.77;;
20966;SDS011;10642;50.682;18.510;2023-05-27T04:23:08;10.30;;;3.57;;
20966;SDS011;10642;50.682;18.510;2023-05-27T04:25:35;8.13;;;3.00;;
20966;SDS011;10642;50.682;18.510;2023-05-27T04:28:04;8.87;;;2.67;;
20966;SDS011;10642;50.682;18.510;2023-05-27T04:30:33;16.67;;;3.37;;
20966;SDS011;10642;50.682;18.510;2023-05-27T04:33:06;13.03;;;3.23;;
20966;SDS011;10642;50.682;18.510;2023-05-27T04:35:34;10.17;;;3.23;;
20966;SDS011;10642;50.682;18.510;2023-05-27T04:38:02;7.60;;;3.17;;
20966;SDS011;10642;50.682;18.510;2023-05-27T04:40:40;9.83;;;3.17;;
20966;SDS011;10642;50.682;18.510;2023-05-27T04:43:23;16.80;;;3.37;;
20966;SDS011;10642;50.682;18.510;2023-05-27T04:45:53;13.97;;;3.47;;
20966;SDS011;10642;50.682;18.510;2023-05-27T04:48:20;10.77;;;3.33;;
20966;SDS011;10642;50.682;18.510;2023-05-27T04:50:49;12.07;;;2.97;;
20966;SDS011;10642;50.682;18.510;2023-05-27T04:53:20;14.83;;;3.23;;
20966;SDS011;10642;50.682;18.510;2023-05-27T04:55:49;15.00;;;3.53;;
20966;SDS011;10642;50.682;18.510;2023-05-27T04:58:16;10.63;;;3.07;;
20966;SDS011;10642;50.682;18.510;2023-05-27T05:00:43;18.00;;;4.70;;
20966;SDS011;10642;50.682;18.510;2023-05-27T05:03:21;13.63;;;3.30;;
20966;SDS011;10642;50.682;18.510;2023-05-27T05:05:49;10.50;;;3.10;;
20966;SDS011;10642;50.682;18.510;2023-05-27T05:08:18;8.73;;;3.10;;
20966;SDS011;10642;50.682;18.510;2023-05-27T05:10:47;13.57;;;3.60;;
20966;SDS011;10642;50.682;18.510;2023-05-27T05:13:15;9.50;;;3.23;;
20966;SDS011;10642;50.682;18.510;2023-05-27T05:15:43;11.43;;;3.60;;
20966;SDS011;10642;50.682;18.510;2023-05-27T05:18:10;15.27;;;3.47;;
20966;SDS011;10642;50.682;18.510;2023-05-27T05:20:37;7.07;;;2.43;;
20966;SDS011;10642;50.682;18.510;2023-05-27T05:23:08;10.37;;;2.90;;
20966;SDS011;10642;50.682;18.510;2023-05-27T05:25:36;14.00;;;3.77;;
20966;SDS011;10642;50.682;18.510;2023-05-27T05:28:06;14.43;;;2.97;;
20966;SDS011;10642;50.682;18.510;2023-05-27T05:30:34;11.03;;;3.40;;
20966;SDS011;10642;50.682;18.510;2023-05-27T05:33:01;10.57;;;3.40;;
20966;SDS011;10642;50.682;18.510;2023-05-27T05:35:31;9.90;;;3.13;;
20966;SDS011;10642;50.682;18.510;2023-05-27T05:38:16;15.27;;;3.73;;
20966;SDS011;10642;50.682;18.510;2023-05-27T05:40:44;11.33;;;3.20;;
20966;SDS011;10642;50.682;18.510;2023-05-27T05:43:16;13.93;;;3.63;;
20966;SDS011;10642;50.682;18.510;2023-05-27T05:45:44;9.37;;;3.63;;
20966;SDS011;10642;50.682;18.510;2023-05-27T05:48:11;16.33;;;3.83;;
20966;SDS011;10642;50.682;18.510;2023-05-27T05:50:40;11.63;;;4.47;;
20966;SDS011;10642;50.682;18.510;2023-05-27T05:53:08;8.77;;;3.40;;
20966;SDS011;10642;50.682;18.510;2023-05-27T05:55:36;10.90;;;3.67;;
20966;SDS011;10642;50.682;18.510;2023-05-27T05:58:04;17.67;;;3.60;;
20966;SDS011;10642;50.682;18.510;2023-05-27T06:00:31;13.43;;;3.27;;
20966;SDS011;10642;50.682;18.510;2023-05-27T06:03:17;11.57;;;2.97;;
20966;SDS011;10642;50.682;18.510;2023-05-27T06:05:51;13.53;;;3.23;;
20966;SDS011;10642;50.682;18.510;2023-05-27T06:08:18;8.70;;;3.67;;
20966;SDS011;10642;50.682;18.510;2023-05-27T06:10:55;13.83;;;3.10;;
20966;SDS011;10642;50.682;18.510;2023-05-27T06:13:23;13.47;;;4.37;;
20966;SDS011;10642;50.682;18.510;2023-05-27T06:15:52;17.80;;;4.70;;
20966;SDS011;10642;50.682;18.510;2023-05-27T06:18:19;12.83;;;3.83;;
20966;SDS011;10642;50.682;18.510;2023-05-27T06:20:46;16.57;;;4.50;;
20966;SDS011;10642;50.682;18.510;2023-05-27T06:23:14;12.27;;;3.60;;
20966;SDS011;10642;50.682;18.510;2023-05-27T06:26:14;14.90;;;3.90;;
20966;SDS011;10642;50.682;18.510;2023-05-27T06:28:47;13.27;;;3.20;;
20966;SDS011;10642;50.682;18.510;2023-05-27T06:31:15;11.00;;;3.03;;
20966;SDS011;10642;50.682;18.510;2023-05-27T06:33:42;11.67;;;3.13;;
20966;SDS011;10642;50.682;18.510;2023-05-27T06:36:09;16.73;;;3.20;;
20966;SDS011;10642;50.682;18.510;2023-05-27T06:38:39;13.23;;;3.00;;
20966;SDS011;10642;50.682;18.510;2023-05-27T06:41:06;11.30;;;3.50;;
20966;SDS011;10642;50.682;18.510;2023-05-27T06:43:38;12.40;;;3.20;;
20966;SDS011;10642;50.682;18.510;2023-05-27T06:46:19;11.40;;;3.10;;
20966;SDS011;10642;50.682;18.510;2023-05-27T06:48:57;12.67;;;4.00;;
20966;SDS011;10642;50.682;18.510;2023-05-27T06:51:24;10.97;;;3.10;;
20966;SDS011;10642;50.682;18.510;2023-05-27T06:53:54;12.17;;;2.97;;
20966;SDS011;10642;50.682;18.510;2023-05-27T06:56:25;15.30;;;3.50;;
20966;SDS011;10642;50.682;18.510;2023-05-27T06:59:11;12.37;;;3.60;;
20966;SDS011;10642;50.682;18.510;2023-05-27T07:01:40;15.20;;;3.40;;
20966;SDS011;10642;50.682;18.510;2023-05-27T07:04:11;14.87;;;3.20;;
20966;SDS011;10642;50.682;18.510;2023-05-27T07:06:49;10.47;;;3.57;;
20966;SDS011;10642;50.682;18.510;2023-05-27T07:09:16;17.10;;;3.10;;
20966;SDS011;10642;50.682;18.510;2023-05-27T07:11:43;12.50;;;3.07;;
20966;SDS011;10642;50.682;18.510;2023-05-27T07:14:33;14.10;;;3.27;;
20966;SDS011;10642;50.682;18.510;2023-05-27T07:17:01;12.13;;;2.90;;
20966;SDS011;10642;50.682;18.510;2023-05-27T07:19:28;11.57;;;2.67;;
20966;SDS011;10642;50.682;18.510;2023-05-27T07:21:59;13.10;;;2.70;;
20966;SDS011;10642;50.682;18.510;2023-05-27T07:24:27;8.80;;;2.33;;
20966;SDS011;10642;50.682;18.510;2023-05-27T07:26:56;7.80;;;2.10;;
20966;SDS011;10642;50.682;18.510;2023-05-27T07:29:25;7.23;;;2.00;;
20966;SDS011;10642;50.682;18.510;2023-05-27T07:31:53;6.33;;;1.83;;
20966;SDS011;10642;50.682;18.510;2023-05-27T07:34:24;6.07;;;1.97;;
20966;SDS011;10642;50.682;18.510;2023-05-27T07:36:51;6.10;;;1.73;;
20966;SDS011;10642;50.682;18.510;2023-05-27T07:39:18;7.43;;;2.10;;
20966;SDS011;10642;50.682;18.510;2023-05-27T07:41:45;5.63;;;1.70;;
20966;SDS011;10642;50.682;18.510;2023-05-27T07:44:12;8.27;;;1.77;;
20966;SDS011;10642;50.682;18.510;2023-05-27T07:46:39;9.07;;;1.57;;
20966;SDS011;10642;50.682;18.510;2023-05-27T07:49:06;6.53;;;1.53;;
20966;SDS011;10642;50.682;18.510;2023-05-27T07:51:41;5.50;;;1.53;;
20966;SDS011;10642;50.682;18.510;2023-05-27T07:54:09;5.33;;;1.80;;
20966;SDS011;10642;50.682;18.510;2023-05-27T07:56:37;7.40;;;2.50;;
20966;SDS011;10642;50.682;18.510;2023-05-27T07:59:04;20.60;;;9.03;;
20966;SDS011;10642;50.682;18.510;2023-05-27T08:01:31;10.30;;;3.33;;
20966;SDS011;10642;50.682;18.510;2023-05-27T08:04:00;4.60;;;1.73;;
20966;SDS011;10642;50.682;18.510;2023-05-27T08:06:56;6.60;;;1.70;;
20966;SDS011;10642;50.682;18.510;2023-05-27T08:09:49;8.70;;;1.80;;
20966;SDS011;10642;50.682;18.510;2023-05-27T08:12:42;6.93;;;1.57;;
20966;SDS011;10642;50.682;18.510;2023-05-27T08:15:13;6.57;;;1.20;;
20966;SDS011;10642;50.682;18.510;2023-05-27T08:18:12;9.07;;;1.80;;
20966;SDS011;10642;50.682;18.510;2023-05-27T08:20:50;4.07;;;1.20;;
20966;SDS011;10642;50.682;18.510;2023-05-27T08:23:40;23.77;;;2.10;;
20966;SDS011;10642;50.682;18.510;2023-05-27T08:26:31;4.10;;;1.37;;
20966;SDS011;10642;50.682;18.510;2023-05-27T08:29:21;8.03;;;2.77;;
20966;SDS011;10642;50.682;18.510;2023-05-27T08:32:00;10.97;;;3.70;;
20966;SDS011;10642;50.682;18.510;2023-05-27T08:34:28;11.20;;;2.07;;
20966;SDS011;10642;50.682;18.510;2023-05-27T08:36:55;5.20;;;1.40;;
20966;SDS011;10642;50.682;18.510;2023-05-27T08:39:24;6.23;;;1.63;;
20966;SDS011;10642;50.682;18.510;2023-05-27T08:42:00;9.83;;;1.53;;
20966;SDS011;10642;50.682;18.510;2023-05-27T08:44:30;8.10;;;1.80;;
20966;SDS011;10642;50.682;18.510;2023-05-27T08:47:02;7.20;;;1.70;;
20966;SDS011;10642;50.682;18.510;2023-05-27T08:49:31;6.47;;;1.30;;
20966;SDS011;10642;50.682;18.510;2023-05-27T08:51:58;7.53;;;1.50;;
20966;SDS011;10642;50.682;18.510;2023-05-27T08:54:26;7.70;;;2.30;;
20966;SDS011;10642;50.682;18.510;2023-05-27T08:56:59;4.40;;;1.37;;
20966;SDS011;10642;50.682;18.510;2023-05-27T08:59:27;3.80;;;1.60;;
20966;SDS011;10642;50.682;18.510;2023-05-27T09:01:56;4.70;;;1.50;;
20966;SDS011;10642;50.682;18.510;2023-05-27T09:04:24;3.37;;;1.50;;
20966;SDS011;10642;50.682;18.510;2023-05-27T09:06:51;6.80;;;1.73;;
20966;SDS011;10642;50.682;18.510;2023-05-27T09:09:19;5.47;;;1.60;;
20966;SDS011;10642;50.682;18.510;2023-05-27T09:11:46;7.40;;;1.40;;
20966;SDS011;10642;50.682;18.510;2023-05-27T09:14:20;5.13;;;1.43;;
20966;SDS011;10642;50.682;18.510;2023-05-27T09:16:47;6.10;;;1.60;;
20966;SDS011;10642;50.682;18.510;2023-05-27T09:19:18;7.57;;;1.53;;
20966;SDS011;10642;50.682;18.510;2023-05-27T09:21:45;5.93;;;1.60;;
20966;SDS011;10642;50.682;18.510;2023-05-27T09:24:12;5.33;;;1.63;;
20966;SDS011;10642;50.682;18.510;2023-05-27T09:26:39;4.57;;;2.00;;
20966;SDS011;10642;50.682;18.510;2023-05-27T09:29:06;7.63;;;1.60;;
20966;SDS011;10642;50.682;18.510;2023-05-27T09:31:40;7.60;;;1.43;;
20966;SDS011;10642;50.682;18.510;2023-05-27T09:34:14;5.60;;;1.83;;
20966;SDS011;10642;50.682;18.510;2023-05-27T09:36:42;5.13;;;1.47;;
20966;SDS011;10642;50.682;18.510;2023-05-27T09:39:09;8.07;;;1.50;;
20966;SDS011;10642;50.682;18.510;2023-05-27T09:41:40;5.97;;;2.00;;
20966;SDS011;10642;50.682;18.510;2023-05-27T09:44:08;3.83;;;1.47;;
20966;SDS011;10642;50.682;18.510;2023-05-27T09:46:35;5.97;;;1.60;;
20966;SDS011;10642;50.682;18.510;2023-05-27T09:49:02;11.10;;;1.80;;
20966;SDS011;10642;50.682;18.510;2023-05-27T09:51:31;4.00;;;1.87;;
20966;SDS011;10642;50.682;18.510;2023-05-27T09:53:58;7.00;;;2.10;;
20966;SDS011;10642;50.682;18.510;2023-05-27T09:56:26;5.60;;;1.73;;
20966;SDS011;10642;50.682;18.510;2023-05-27T09:58:56;4.70;;;1.73;;
20966;SDS011;10642;50.682;18.510;2023-05-27T10:01:24;5.00;;;1.57;;
20966;SDS011;10642;50.682;18.510;2023-05-27T10:03:52;4.70;;;1.20;;
20966;SDS011;10642;50.682;18.510;2023-05-27T10:06:20;9.33;;;1.90;;
20966;SDS011;10642;50.682;18.510;2023-05-27T10:08:48;7.10;;;1.73;;
20966;SDS011;10642;50.682;18.510;2023-05-27T10:11:15;5.07;;;1.73;;
20966;SDS011;10642;50.682;18.510;2023-05-27T10:13:42;10.53;;;1.93;;
20966;SDS011;10642;50.682;18.510;2023-05-27T10:16:17;5.57;;;1.70;;
20966;SDS011;10642;50.682;18.510;2023-05-27T10:18:45;4.90;;;1.83;;
20966;SDS011;10642;50.682;18.510;2023-05-27T10:21:17;7.87;;;1.50;;
20966;SDS011;10642;50.682;18.510;2023-05-27T10:23:51;6.27;;;1.57;;
20966;SDS011;10642;50.682;18.510;2023-05-27T10:26:18;5.57;;;2.00;;
20966;SDS011;10642;50.682;18.510;2023-05-27T10:28:45;5.27;;;1.73;;
20966;SDS011;10642;50.682;18.510;2023-05-27T10:31:16;4.67;;;1.90;;
20966;SDS011;10642;50.682;18.510;2023-05-27T10:33:44;3.47;;;1.60;;
20966;SDS011;10642;50.682;18.510;2023-05-27T10:36:13;7.83;;;1.30;;
20966;SDS011;10642;50.682;18.510;2023-05-27T10:38:41;5.17;;;1.90;;
20966;SDS011;10642;50.682;18.510;2023-05-27T10:41:08;5.23;;;2.00;;
20966;SDS011;10642;50.682;18.510;2023-05-27T10:43:35;5.60;;;1.77;;
20966;SDS011;10642;50.682;18.510;2023-05-27T10:46:09;5.00;;;1.60;;
20966;SDS011;10642;50.682;18.510;2023-05-27T10:48:38;9.30;;;2.00;;
20966;SDS011;10642;50.682;18.510;2023-05-27T10:51:08;7.10;;;1.60;;
20966;SDS011;10642;50.682;18.510;2023-05-27T10:53:36;11.53;;;2.07;;
20966;SDS011;10642;50.682;18.510;2023-05-27T10:56:03;6.43;;;1.80;;
20966;SDS011;10642;50.682;18.510;2023-05-27T10:58:34;4.00;;;1.57;;
20966;SDS011;10642;50.682;18.510;2023-05-27T11:01:11;5.10;;;1.70;;
20966;SDS011;10642;50.682;18.510;2023-05-27T11:03:44;4.40;;;1.60;;
20966;SDS011;10642;50.682;18.510;2023-05-27T11:06:12;7.57;;;1.60;;
20966;SDS011;10642;50.682;18.510;2023-05-27T11:08:40;7.77;;;1.60;;
20966;SDS011;10642;50.682;18.510;2023-05-27T11:11:07;6.33;;;1.40;;
20966;SDS011;10642;50.682;18.510;2023-05-27T11:13:35;7.87;;;1.50;;
20966;SDS011;10642;50.682;18.510;2023-05-27T11:16:05;3.70;;;1.73;;
20966;SDS011;10642;50.682;18.510;2023-05-27T11:18:39;2.87;;;1.60;;
20966;SDS011;10642;50.682;18.510;2023-05-27T11:21:07;5.10;;;1.73;;
20966;SDS011;10642;50.682;18.510;2023-05-27T11:26:01;4.73;;;1.60;;
20966;SDS011;10642;50.682;18.510;2023-05-27T11:28:28;6.33;;;1.63;;
20966;SDS011;10642;50.682;18.510;2023-05-27T11:31:04;10.60;;;2.20;;
20966;SDS011;10642;50.682;18.510;2023-05-27T11:33:32;8.30;;;1.40;;
20966;SDS011;10642;50.682;18.510;2023-05-27T11:36:04;5.80;;;2.00;;
20966;SDS011;10642;50.682;18.510;2023-05-27T11:38:31;5.93;;;2.03;;
20966;SDS011;10642;50.682;18.510;2023-05-27T11:41:07;3.10;;;1.60;;
20966;SDS011;10642;50.682;18.510;2023-05-27T11:43:35;4.90;;;1.67;;
20966;SDS011;10642;50.682;18.510;2023-05-27T11:46:02;8.47;;;1.90;;
20966;SDS011;10642;50.682;18.510;2023-05-27T11:48:30;8.47;;;1.60;;
20966;SDS011;10642;50.682;18.510;2023-05-27T11:50:57;3.53;;;1.47;;
20966;SDS011;10642;50.682;18.510;2023-05-27T11:53:26;6.43;;;1.50;;
20966;SDS011;10642;50.682;18.510;2023-05-27T11:55:53;4.43;;;1.23;;
20966;SDS011;10642;50.682;18.510;2023-05-27T11:58:20;5.60;;;1.67;;
20966;SDS011;10642;50.682;18.510;2023-05-27T12:00:47;6.17;;;1.83;;
20966;SDS011;10642;50.682;18.510;2023-05-27T12:03:13;5.57;;;1.50;;
20966;SDS011;10642;50.682;18.510;2023-05-27T12:05:41;3.70;;;1.30;;
20966;SDS011;10642;50.682;18.510;2023-05-27T12:08:08;4.90;;;1.60;;
20966;SDS011;10642;50.682;18.510;2023-05-27T12:10:34;4.10;;;1.40;;
20966;SDS011;10642;50.682;18.510;2023-05-27T12:13:05;3.37;;;1.50;;
20966;SDS011;10642;50.682;18.510;2023-05-27T12:15:32;5.53;;;1.90;;
20966;SDS011;10642;50.682;18.510;2023-05-27T12:17:59;4.87;;;1.80;;
20966;SDS011;10642;50.682;18.510;2023-05-27T12:20:26;7.50;;;1.83;;
20966;SDS011;10642;50.682;18.510;2023-05-27T12:22:55;3.83;;;2.00;;
20966;SDS011;10642;50.682;18.510;2023-05-27T12:25:22;9.93;;;2.03;;
20966;SDS011;10642;50.682;18.510;2023-05-27T12:27:49;2.93;;;1.27;;
20966;SDS011;10642;50.682;18.510;2023-05-27T12:30:16;3.93;;;1.30;;
20966;SDS011;10642;50.682;18.510;2023-05-27T12:32:43;5.03;;;1.40;;
20966;SDS011;10642;50.682;18.510;2023-05-27T12:35:10;7.50;;;1.90;;
20966;SDS011;10642;50.682;18.510;2023-05-27T12:37:37;5.40;;;1.70;;
20966;SDS011;10642;50.682;18.510;2023-05-27T12:40:04;2.70;;;1.20;;
20966;SDS011;10642;50.682;18.510;2023-05-27T12:42:32;4.93;;;1.63;;
20966;SDS011;10642;50.682;18.510;2023-05-27T12:44:59;4.70;;;1.63;;
20966;SDS011;10642;50.682;18.510;2023-05-27T12:47:26;5.70;;;1.70;;
20966;SDS011;10642;50.682;18.510;2023-05-27T12:49:53;10.17;;;1.70;;
20966;SDS011;10642;50.682;18.510;2023-05-27T12:52:20;8.27;;;2.50;;
20966;SDS011;10642;50.682;18.510;2023-05-27T12:54:47;19.47;;;2.23;;
20966;SDS011;10642;50.682;18.510;2023-05-27T12:57:14;4.23;;;1.70;;
20966;SDS011;10642;50.682;18.510;2023-05-27T12:59:41;5.23;;;2.27;;
20966;SDS011;10642;50.682;18.510;2023-05-27T13:02:08;5.80;;;1.60;;
20966;SDS011;10642;50.682;18.510;2023-05-27T13:04:35;2.97;;;1.23;;
20966;SDS011;10642;50.682;18.510;2023-05-27T13:07:02;4.10;;;1.20;;
20966;SDS011;10642;50.682;18.510;2023-05-27T13:09:29;15.60;;;2.67;;
20966;SDS011;10642;50.682;18.510;2023-05-27T13:11:57;3.57;;;1.63;;
20966;SDS011;10642;50.682;18.510;2023-05-27T13:14:23;6.03;;;1.43;;
20966;SDS011;10642;50.682;18.510;2023-05-27T13:16:50;3.83;;;1.70;;
20966;SDS011;10642;50.682;18.510;2023-05-27T13:19:17;3.53;;;1.33;;
20966;SDS011;10642;50.682;18.510;2023-05-27T13:21:44;6.47;;;1.50;;
20966;SDS011;10642;50.682;18.510;2023-05-27T13:24:11;5.53;;;1.47;;
20966;SDS011;10642;50.682;18.510;2023-05-27T13:26:39;5.80;;;1.60;;
20966;SDS011;10642;50.682;18.510;2023-05-27T13:29:06;2.60;;;1.37;;
20966;SDS011;10642;50.682;18.510;2023-05-27T13:31:33;4.83;;;1.57;;
20966;SDS011;10642;50.682;18.510;2023-05-27T13:33:59;5.47;;;1.37;;
20966;SDS011;10642;50.682;18.510;2023-05-27T13:36:27;6.03;;;1.47;;
20966;SDS011;10642;50.682;18.510;2023-05-27T13:38:53;4.80;;;1.63;;
20966;SDS011;10642;50.682;18.510;2023-05-27T13:41:21;7.80;;;1.87;;
20966;SDS011;10642;50.682;18.510;2023-05-27T13:43:48;8.60;;;2.20;;
20966;SDS011;10642;50.682;18.510;2023-05-27T13:46:14;6.40;;;1.53;;
20966;SDS011;10642;50.682;18.510;2023-05-27T13:48:41;5.33;;;1.70;;
20966;SDS011;10642;50.682;18.510;2023-05-27T13:51:09;4.40;;;1.47;;
20966;SDS011;10642;50.682;18.510;2023-05-27T13:53:36;5.97;;;1.73;;
20966;SDS011;10642;50.682;18.510;2023-05-27T13:56:02;7.07;;;1.53;;
20966;SDS011;10642;50.682;18.510;2023-05-27T13:58:30;9.13;;;1.73;;
20966;SDS011;10642;50.682;18.510;2023-05-27T14:00:57;3.10;;;1.30;;
20966;SDS011;10642;50.682;18.510;2023-05-27T14:03:24;8.03;;;1.70;;
20966;SDS011;10642;50.682;18.510;2023-05-27T14:05:51;3.97;;;1.53;;
20966;SDS011;10642;50.682;18.510;2023-05-27T14:08:19;4.53;;;1.57;;
20966;SDS011;10642;50.682;18.510;2023-05-27T14:10:45;7.40;;;1.47;;
20966;SDS011;10642;50.682;18.510;2023-05-27T14:13:12;6.93;;;2.00;;
20966;SDS011;10642;50.682;18.510;2023-05-27T14:15:40;7.30;;;1.87;;
20966;SDS011;10642;50.682;18.510;2023-05-27T14:18:07;8.73;;;1.83;;
20966;SDS011;10642;50.682;18.510;2023-05-27T14:20:34;4.03;;;1.40;;
20966;SDS011;10642;50.682;18.510;2023-05-27T14:23:01;4.47;;;1.60;;
20966;SDS011;10642;50.682;18.510;2023-05-27T14:25:30;3.67;;;1.30;;
20966;SDS011;10642;50.682;18.510;2023-05-27T14:27:57;4.00;;;1.60;;
20966;SDS011;10642;50.682;18.510;2023-05-27T14:30:28;9.00;;;1.93;;
20966;SDS011;10642;50.682;18.510;2023-05-27T14:32:56;3.77;;;1.83;;
20966;SDS011;10642;50.682;18.510;2023-05-27T14:35:28;4.33;;;1.50;;
20966;SDS011;10642;50.682;18.510;2023-05-27T14:37:55;4.53;;;1.43;;
20966;SDS011;10642;50.682;18.510;2023-05-27T14:40:22;4.13;;;1.63;;
20966;SDS011;10642;50.682;18.510;2023-05-27T14:42:49;4.30;;;1.53;;